sensor_id;sensor_type;location;lat;lon;timestamp;temperature;humidity
23405;DHT22;11875;49.356;2.718;2022-09-12T00:01:43;18.40;99.90
23405;DHT22;11875;49.356;2.718;2022-09-12T00:04:09;18.40;99.90
23405;DHT22;11875;49.356;2.718;2022-09-12T00:06:36;18.40;99.90
23405;DHT22;11875;49.356;2.718;2022-09-12T00:09:10;18.40;99.90
23405;DHT22;11875;49.356;2.718;2022-09-12T00:11:38;18.40;99.90
23405;DHT22;11875;49.356;2.718;2022-09-12T00:14:04;18.40;99.90
23405;DHT22;11875;49.356;2.718;2022-09-12T00:16:32;18.30;99.90
23405;DHT22;11875;49.356;2.718;2022-09-12T00:18:58;18.40;99.90
23405;DHT22;11875;49.356;2.718;2022-09-12T00:21:25;18.30;99.90
23405;DHT22;11875;49.356;2.718;2022-09-12T00:23:51;18.30;99.90
23405;DHT22;11875;49.356;2.718;2022-09-12T00:26:17;18.30;99.90
23405;DHT22;11875;49.356;2.718;2022-09-12T00:28:43;18.30;99.90
23405;DHT22;11875;49.356;2.718;2022-09-12T00:31:13;18.40;99.90
23405;DHT22;11875;49.356;2.718;2022-09-12T00:33:39;18.40;99.90
23405;DHT22;11875;49.356;2.718;2022-09-12T00:36:13;18.30;99.90
23405;DHT22;11875;49.356;2.718;2022-09-12T00:38:40;18.20;99.90
23405;DHT22;11875;49.356;2.718;2022-09-12T00:41:30;18.20;99.90
23405;DHT22;11875;49.356;2.718;2022-09-12T00:44:00;18.20;99.90
23405;DHT22;11875;49.356;2.718;2022-09-12T00:52:03;18.10;99.90
23405;DHT22;11875;49.356;2.718;2022-09-12T00:54:34;18.10;99.90
23405;DHT22;11875;49.356;2.718;2022-09-12T00:57:03;17.90;99.90
23405;DHT22;11875;49.356;2.718;2022-09-12T00:59:37;17.90;99.90
23405;DHT22;11875;49.356;2.718;2022-09-12T01:02:04;17.80;99.90
23405;DHT22;11875;49.356;2.718;2022-09-12T01:04:31;17.90;99.90
23405;DHT22;11875;49.356;2.718;2022-09-12T01:06:58;17.80;99.90
23405;DHT22;11875;49.356;2.718;2022-09-12T01:09:24;17.80;99.90
23405;DHT22;11875;49.356;2.718;2022-09-12T01:11:51;17.80;99.90
23405;DHT22;11875;49.356;2.718;2022-09-12T01:14:18;17.80;99.90
23405;DHT22;11875;49.356;2.718;2022-09-12T01:16:45;17.80;99.90
23405;DHT22;11875;49.356;2.718;2022-09-12T01:28:35;17.50;99.90
23405;DHT22;11875;49.356;2.718;2022-09-12T01:31:09;17.50;99.90
23405;DHT22;11875;49.356;2.718;2022-09-12T01:33:45;17.50;99.90
23405;DHT22;11875;49.356;2.718;2022-09-12T01:36:24;17.40;99.90
23405;DHT22;11875;49.356;2.718;2022-09-12T01:39:19;17.50;99.90
23405;DHT22;11875;49.356;2.718;2022-09-12T01:42:09;17.50;99.90
23405;DHT22;11875;49.356;2.718;2022-09-12T01:50:18;17.40;99.90
23405;DHT22;11875;49.356;2.718;2022-09-12T01:52:55;17.40;99.90
23405;DHT22;11875;49.356;2.718;2022-09-12T01:55:32;17.30;99.90
23405;DHT22;11875;49.356;2.718;2022-09-12T02:01:07;17.30;99.90
23405;DHT22;11875;49.356;2.718;2022-09-12T02:03:42;17.30;99.90
23405;DHT22;11875;49.356;2.718;2022-09-12T02:06:21;17.30;99.90
23405;DHT22;11875;49.356;2.718;2022-09-12T02:08:56;17.30;99.90
23405;DHT22;11875;49.356;2.718;2022-09-12T02:11:22;17.20;99.90
23405;DHT22;11875;49.356;2.718;2022-09-12T02:14:08;17.20;99.90
23405;DHT22;11875;49.356;2.718;2022-09-12T02:16:47;17.10;99.90
23405;DHT22;11875;49.356;2.718;2022-09-12T02:19:22;17.00;99.90
23405;DHT22;11875;49.356;2.718;2022-09-12T02:21:53;17.00;99.90
23405;DHT22;11875;49.356;2.718;2022-09-12T02:24:23;17.00;99.90
23405;DHT22;11875;49.356;2.718;2022-09-12T02:26:54;17.00;99.90
23405;DHT22;11875;49.356;2.718;2022-09-12T02:29:20;16.90;99.90
23405;DHT22;11875;49.356;2.718;2022-09-12T02:31:48;17.00;99.90
23405;DHT22;11875;49.356;2.718;2022-09-12T02:34:23;16.90;99.90
23405;DHT22;11875;49.356;2.718;2022-09-12T02:37:07;16.90;99.90
23405;DHT22;11875;49.356;2.718;2022-09-12T02:39:35;16.90;99.90
23405;DHT22;11875;49.356;2.718;2022-09-12T02:42:01;16.90;99.90
23405;DHT22;11875;49.356;2.718;2022-09-12T02:44:29;16.90;99.90
23405;DHT22;11875;49.356;2.718;2022-09-12T02:47:09;16.90;99.90
23405;DHT22;11875;49.356;2.718;2022-09-12T02:49:35;16.90;99.90
23405;DHT22;11875;49.356;2.718;2022-09-12T02:52:01;16.90;99.90
23405;DHT22;11875;49.356;2.718;2022-09-12T02:54:28;16.90;99.90
23405;DHT22;11875;49.356;2.718;2022-09-12T02:56:54;16.90;99.90
23405;DHT22;11875;49.356;2.718;2022-09-12T02:59:22;16.80;99.90
23405;DHT22;11875;49.356;2.718;2022-09-12T03:02:06;16.80;99.90
23405;DHT22;11875;49.356;2.718;2022-09-12T03:21:24;16.60;99.90
23405;DHT22;11875;49.356;2.718;2022-09-12T03:26:34;16.60;99.90
23405;DHT22;11875;49.356;2.718;2022-09-12T03:29:03;16.50;99.90
23405;DHT22;11875;49.356;2.718;2022-09-12T03:31:30;16.50;99.90
23405;DHT22;11875;49.356;2.718;2022-09-12T03:33:58;16.50;99.90
23405;DHT22;11875;49.356;2.718;2022-09-12T03:36:26;16.40;99.90
23405;DHT22;11875;49.356;2.718;2022-09-12T03:38:52;16.40;99.90
23405;DHT22;11875;49.356;2.718;2022-09-12T03:41:18;16.50;99.90
23405;DHT22;11875;49.356;2.718;2022-09-12T03:43:44;16.50;99.90
23405;DHT22;11875;49.356;2.718;2022-09-12T03:46:10;16.40;99.90
23405;DHT22;11875;49.356;2.718;2022-09-12T03:48:35;16.40;99.90
23405;DHT22;11875;49.356;2.718;2022-09-12T03:51:02;16.40;99.90
23405;DHT22;11875;49.356;2.718;2022-09-12T03:53:29;16.40;99.90
23405;DHT22;11875;49.356;2.718;2022-09-12T03:55:55;16.40;99.90
23405;DHT22;11875;49.356;2.718;2022-09-12T03:58:21;15.10;99.90
23405;DHT22;11875;49.356;2.718;2022-09-12T04:00:46;16.30;99.90
23405;DHT22;11875;49.356;2.718;2022-09-12T04:03:12;16.30;99.90
23405;DHT22;11875;49.356;2.718;2022-09-12T04:05:38;16.30;99.90
23405;DHT22;11875;49.356;2.718;2022-09-12T04:08:04;16.30;99.90
23405;DHT22;11875;49.356;2.718;2022-09-12T04:10:31;16.30;99.90
23405;DHT22;11875;49.356;2.718;2022-09-12T04:12:56;16.30;99.90
23405;DHT22;11875;49.356;2.718;2022-09-12T04:15:22;16.30;99.90
23405;DHT22;11875;49.356;2.718;2022-09-12T04:17:48;16.20;99.90
23405;DHT22;11875;49.356;2.718;2022-09-12T04:20:13;16.20;99.90
23405;DHT22;11875;49.356;2.718;2022-09-12T04:22:39;16.20;99.90
23405;DHT22;11875;49.356;2.718;2022-09-12T04:25:05;16.10;99.90
23405;DHT22;11875;49.356;2.718;2022-09-12T04:27:31;16.10;99.90
23405;DHT22;11875;49.356;2.718;2022-09-12T04:29:57;16.10;99.90
23405;DHT22;11875;49.356;2.718;2022-09-12T04:32:23;16.10;99.90
23405;DHT22;11875;49.356;2.718;2022-09-12T04:34:49;16.00;99.90
23405;DHT22;11875;49.356;2.718;2022-09-12T04:37:17;16.00;99.90
23405;DHT22;11875;49.356;2.718;2022-09-12T04:39:42;16.00;99.90
23405;DHT22;11875;49.356;2.718;2022-09-12T04:42:08;16.00;99.90
23405;DHT22;11875;49.356;2.718;2022-09-12T04:44:34;16.10;99.90
23405;DHT22;11875;49.356;2.718;2022-09-12T04:46:59;16.00;99.90
23405;DHT22;11875;49.356;2.718;2022-09-12T04:49:25;16.00;99.90
23405;DHT22;11875;49.356;2.718;2022-09-12T04:51:52;16.00;99.90
23405;DHT22;11875;49.356;2.718;2022-09-12T04:54:18;16.00;99.90
23405;DHT22;11875;49.356;2.718;2022-09-12T04:56:46;16.00;99.90
23405;DHT22;11875;49.356;2.718;2022-09-12T04:59:14;16.00;99.90
23405;DHT22;11875;49.356;2.718;2022-09-12T05:01:40;16.00;99.90
23405;DHT22;11875;49.356;2.718;2022-09-12T05:04:08;15.90;99.90
23405;DHT22;11875;49.356;2.718;2022-09-12T05:06:36;16.00;99.90
23405;DHT22;11875;49.356;2.718;2022-09-12T05:09:04;15.90;99.90
23405;DHT22;11875;49.356;2.718;2022-09-12T05:11:33;15.80;99.90
23405;DHT22;11875;49.356;2.718;2022-09-12T05:13:59;15.80;99.90
23405;DHT22;11875;49.356;2.718;2022-09-12T05:16:26;15.80;99.90
23405;DHT22;11875;49.356;2.718;2022-09-12T05:18:52;15.80;99.90
23405;DHT22;11875;49.356;2.718;2022-09-12T05:21:20;15.80;99.90
23405;DHT22;11875;49.356;2.718;2022-09-12T05:23:53;15.80;99.90
23405;DHT22;11875;49.356;2.718;2022-09-12T05:26:19;15.80;99.90
23405;DHT22;11875;49.356;2.718;2022-09-12T05:28:46;15.70;99.90
23405;DHT22;11875;49.356;2.718;2022-09-12T05:31:24;15.60;99.90
23405;DHT22;11875;49.356;2.718;2022-09-12T05:33:51;15.70;99.90
23405;DHT22;11875;49.356;2.718;2022-09-12T05:36:30;15.70;99.90
23405;DHT22;11875;49.356;2.718;2022-09-12T05:38:57;15.70;99.90
23405;DHT22;11875;49.356;2.718;2022-09-12T05:41:29;15.70;99.90
23405;DHT22;11875;49.356;2.718;2022-09-12T05:44:00;15.70;99.90
23405;DHT22;11875;49.356;2.718;2022-09-12T05:46:28;15.60;99.90
23405;DHT22;11875;49.356;2.718;2022-09-12T05:48:54;15.60;99.90
23405;DHT22;11875;49.356;2.718;2022-09-12T05:51:27;15.60;99.90
23405;DHT22;11875;49.356;2.718;2022-09-12T05:53:58;15.70;99.90
23405;DHT22;11875;49.356;2.718;2022-09-12T05:56:26;15.60;99.90
23405;DHT22;11875;49.356;2.718;2022-09-12T05:58:57;15.50;99.90
23405;DHT22;11875;49.356;2.718;2022-09-12T06:01:23;15.50;99.90
23405;DHT22;11875;49.356;2.718;2022-09-12T06:03:51;15.50;99.90
23405;DHT22;11875;49.356;2.718;2022-09-12T06:06:19;15.50;99.90
23405;DHT22;11875;49.356;2.718;2022-09-12T06:08:47;15.60;99.90
23405;DHT22;11875;49.356;2.718;2022-09-12T06:11:21;15.70;99.90
23405;DHT22;11875;49.356;2.718;2022-09-12T06:13:47;15.70;99.90
23405;DHT22;11875;49.356;2.718;2022-09-12T06:16:21;15.60;99.90
23405;DHT22;11875;49.356;2.718;2022-09-12T06:18:49;15.60;99.90
23405;DHT22;11875;49.356;2.718;2022-09-12T06:21:15;15.50;99.90
23405;DHT22;11875;49.356;2.718;2022-09-12T06:23:41;15.60;99.90
23405;DHT22;11875;49.356;2.718;2022-09-12T06:26:08;15.60;99.90
23405;DHT22;11875;49.356;2.718;2022-09-12T06:28:35;15.70;99.90
23405;DHT22;11875;49.356;2.718;2022-09-12T06:31:03;15.70;99.90
23405;DHT22;11875;49.356;2.718;2022-09-12T06:33:33;15.60;99.90
23405;DHT22;11875;49.356;2.718;2022-09-12T06:36:13;15.60;99.90
23405;DHT22;11875;49.356;2.718;2022-09-12T06:38:40;15.60;99.90
23405;DHT22;11875;49.356;2.718;2022-09-12T06:41:08;15.60;99.90
23405;DHT22;11875;49.356;2.718;2022-09-12T06:43:34;15.70;99.90
23405;DHT22;11875;49.356;2.718;2022-09-12T06:46:00;15.80;99.90
23405;DHT22;11875;49.356;2.718;2022-09-12T06:48:26;15.80;99.90
23405;DHT22;11875;49.356;2.718;2022-09-12T06:51:00;15.70;99.90
23405;DHT22;11875;49.356;2.718;2022-09-12T06:53:28;15.80;99.90
23405;DHT22;11875;49.356;2.718;2022-09-12T06:56:02;15.80;99.90
23405;DHT22;11875;49.356;2.718;2022-09-12T06:58:30;15.90;99.90
23405;DHT22;11875;49.356;2.718;2022-09-12T07:03:30;16.10;99.90
23405;DHT22;11875;49.356;2.718;2022-09-12T07:05:56;16.10;99.90
23405;DHT22;11875;49.356;2.718;2022-09-12T07:08:22;16.20;99.90
23405;DHT22;11875;49.356;2.718;2022-09-12T07:10:48;16.20;99.90
23405;DHT22;11875;49.356;2.718;2022-09-12T07:13:13;16.20;99.90
23405;DHT22;11875;49.356;2.718;2022-09-12T07:15:39;16.30;99.90
23405;DHT22;11875;49.356;2.718;2022-09-12T07:18:05;16.30;99.90
23405;DHT22;11875;49.356;2.718;2022-09-12T07:20:31;16.30;99.90
23405;DHT22;11875;49.356;2.718;2022-09-12T07:23:00;16.50;99.90
23405;DHT22;11875;49.356;2.718;2022-09-12T07:25:25;16.60;99.90
23405;DHT22;11875;49.356;2.718;2022-09-12T07:27:52;16.60;99.90
23405;DHT22;11875;49.356;2.718;2022-09-12T07:30:18;16.60;99.90
23405;DHT22;11875;49.356;2.718;2022-09-12T07:32:43;16.60;99.90
23405;DHT22;11875;49.356;2.718;2022-09-12T07:35:09;16.60;99.90
23405;DHT22;11875;49.356;2.718;2022-09-12T07:37:35;16.80;99.90
23405;DHT22;11875;49.356;2.718;2022-09-12T07:40:01;17.30;99.90
23405;DHT22;11875;49.356;2.718;2022-09-12T07:42:27;17.90;99.90
23405;DHT22;11875;49.356;2.718;2022-09-12T07:44:52;18.30;99.90
23405;DHT22;11875;49.356;2.718;2022-09-12T07:47:18;18.90;99.90
23405;DHT22;11875;49.356;2.718;2022-09-12T07:49:44;19.40;99.90
23405;DHT22;11875;49.356;2.718;2022-09-12T07:52:09;19.70;99.90
23405;DHT22;11875;49.356;2.718;2022-09-12T07:54:35;20.10;99.90
23405;DHT22;11875;49.356;2.718;2022-09-12T07:57:01;20.30;99.90
23405;DHT22;11875;49.356;2.718;2022-09-12T07:59:26;20.50;99.90
23405;DHT22;11875;49.356;2.718;2022-09-12T08:01:52;20.70;99.90
23405;DHT22;11875;49.356;2.718;2022-09-12T08:04:18;20.80;99.90
23405;DHT22;11875;49.356;2.718;2022-09-12T08:06:44;21.10;99.90
23405;DHT22;11875;49.356;2.718;2022-09-12T08:09:09;21.40;99.90
23405;DHT22;11875;49.356;2.718;2022-09-12T08:11:37;21.50;99.90
23405;DHT22;11875;49.356;2.718;2022-09-12T08:14:02;21.60;99.90
23405;DHT22;11875;49.356;2.718;2022-09-12T08:16:30;21.60;99.90
23405;DHT22;11875;49.356;2.718;2022-09-12T08:18:57;21.80;99.90
23405;DHT22;11875;49.356;2.718;2022-09-12T08:21:26;21.80;99.90
23405;DHT22;11875;49.356;2.718;2022-09-12T08:23:54;21.90;99.90
23405;DHT22;11875;49.356;2.718;2022-09-12T08:26:20;22.00;99.90
23405;DHT22;11875;49.356;2.718;2022-09-12T08:28:46;22.10;99.90
23405;DHT22;11875;49.356;2.718;2022-09-12T08:31:14;22.30;99.90
23405;DHT22;11875;49.356;2.718;2022-09-12T08:33:41;22.30;99.90
23405;DHT22;11875;49.356;2.718;2022-09-12T08:36:10;22.40;99.90
23405;DHT22;11875;49.356;2.718;2022-09-12T08:38:38;22.50;99.90
23405;DHT22;11875;49.356;2.718;2022-09-12T08:41:37;22.50;99.90
23405;DHT22;11875;49.356;2.718;2022-09-12T08:47:08;22.60;99.90
23405;DHT22;11875;49.356;2.718;2022-09-12T08:49:52;22.70;99.90
23405;DHT22;11875;49.356;2.718;2022-09-12T08:52:30;22.80;99.90
23405;DHT22;11875;49.356;2.718;2022-09-12T08:54:59;22.80;99.90
23405;DHT22;11875;49.356;2.718;2022-09-12T08:57:25;22.90;99.90
23405;DHT22;11875;49.356;2.718;2022-09-12T08:59:51;23.00;99.90
23405;DHT22;11875;49.356;2.718;2022-09-12T09:08:13;23.30;99.90
23405;DHT22;11875;49.356;2.718;2022-09-12T09:11:02;23.40;99.90
23405;DHT22;11875;49.356;2.718;2022-09-12T09:16:37;23.80;99.90
23405;DHT22;11875;49.356;2.718;2022-09-12T09:19:10;23.90;99.90
23405;DHT22;11875;49.356;2.718;2022-09-12T09:24:10;24.10;99.90
23405;DHT22;11875;49.356;2.718;2022-09-12T09:27:04;24.20;99.90
23405;DHT22;11875;49.356;2.718;2022-09-12T09:29:43;24.30;99.90
23405;DHT22;11875;49.356;2.718;2022-09-12T09:32:17;24.40;99.90
23405;DHT22;11875;49.356;2.718;2022-09-12T09:34:43;24.40;99.90
23405;DHT22;11875;49.356;2.718;2022-09-12T09:37:14;24.70;99.90
23405;DHT22;11875;49.356;2.718;2022-09-12T09:45:17;24.60;99.90
23405;DHT22;11875;49.356;2.718;2022-09-12T09:48:06;24.60;99.90
23405;DHT22;11875;49.356;2.718;2022-09-12T09:50:36;24.80;99.90
23405;DHT22;11875;49.356;2.718;2022-09-12T09:53:02;24.70;99.90
23405;DHT22;11875;49.356;2.718;2022-09-12T09:55:33;24.70;99.90
23405;DHT22;11875;49.356;2.718;2022-09-12T09:58:03;24.60;99.90
23405;DHT22;11875;49.356;2.718;2022-09-12T10:06:00;24.80;99.90
23405;DHT22;11875;49.356;2.718;2022-09-12T10:08:29;25.00;99.90
23405;DHT22;11875;49.356;2.718;2022-09-12T10:13:29;25.00;99.90
23405;DHT22;11875;49.356;2.718;2022-09-12T10:15:59;25.10;99.90
23405;DHT22;11875;49.356;2.718;2022-09-12T10:18:40;25.20;99.90
23405;DHT22;11875;49.356;2.718;2022-09-12T10:21:15;25.30;99.90
23405;DHT22;11875;49.356;2.718;2022-09-12T10:23:44;25.40;99.90
23405;DHT22;11875;49.356;2.718;2022-09-12T10:26:13;25.40;99.60
23405;DHT22;11875;49.356;2.718;2022-09-12T10:28:49;25.40;99.90
23405;DHT22;11875;49.356;2.718;2022-09-12T10:31:26;25.40;99.10
23405;DHT22;11875;49.356;2.718;2022-09-12T10:33:54;25.40;99.10
23405;DHT22;11875;49.356;2.718;2022-09-12T10:36:21;25.70;98.30
23405;DHT22;11875;49.356;2.718;2022-09-12T10:39:11;25.90;97.70
23405;DHT22;11875;49.356;2.718;2022-09-12T10:41:40;25.80;97.50
23405;DHT22;11875;49.356;2.718;2022-09-12T10:44:17;25.70;97.70
23405;DHT22;11875;49.356;2.718;2022-09-12T10:46:43;25.70;97.10
23405;DHT22;11875;49.356;2.718;2022-09-12T10:49:24;25.80;97.30
23405;DHT22;11875;49.356;2.718;2022-09-12T10:51:52;25.70;96.30
23405;DHT22;11875;49.356;2.718;2022-09-12T10:54:21;25.70;96.20
23405;DHT22;11875;49.356;2.718;2022-09-12T10:57:04;25.90;96.00
23405;DHT22;11875;49.356;2.718;2022-09-12T11:00:02;25.90;96.00
23405;DHT22;11875;49.356;2.718;2022-09-12T11:03:05;25.80;96.10
23405;DHT22;11875;49.356;2.718;2022-09-12T11:05:44;25.80;96.30
23405;DHT22;11875;49.356;2.718;2022-09-12T11:08:46;25.80;96.30
23405;DHT22;11875;49.356;2.718;2022-09-12T11:11:32;25.70;95.80
23405;DHT22;11875;49.356;2.718;2022-09-12T11:17:04;26.20;96.10
23405;DHT22;11875;49.356;2.718;2022-09-12T11:25:11;26.50;95.00
23405;DHT22;11875;49.356;2.718;2022-09-12T11:30:38;26.50;95.10
23405;DHT22;11875;49.356;2.718;2022-09-12T11:33:41;26.40;94.90
23405;DHT22;11875;49.356;2.718;2022-09-12T11:41:42;26.50;95.10
23405;DHT22;11875;49.356;2.718;2022-09-12T11:44:16;26.60;95.00
23405;DHT22;11875;49.356;2.718;2022-09-12T11:46:44;26.60;95.00
23405;DHT22;11875;49.356;2.718;2022-09-12T11:55:14;26.60;94.80
23405;DHT22;11875;49.356;2.718;2022-09-12T11:57:48;26.60;94.60
23405;DHT22;11875;49.356;2.718;2022-09-12T12:00:33;26.60;94.40
23405;DHT22;11875;49.356;2.718;2022-09-12T12:05:41;26.70;94.10
23405;DHT22;11875;49.356;2.718;2022-09-12T12:08:09;26.70;94.20
23405;DHT22;11875;49.356;2.718;2022-09-12T12:10:41;26.70;94.50
23405;DHT22;11875;49.356;2.718;2022-09-12T12:13:16;26.90;93.60
23405;DHT22;11875;49.356;2.718;2022-09-12T12:15:48;27.00;92.90
23405;DHT22;11875;49.356;2.718;2022-09-12T12:18:23;26.90;92.90
23405;DHT22;11875;49.356;2.718;2022-09-12T12:20:49;26.80;92.70
23405;DHT22;11875;49.356;2.718;2022-09-12T12:24:10;26.90;93.10
23405;DHT22;11875;49.356;2.718;2022-09-12T12:27:23;27.00;92.60
23405;DHT22;11875;49.356;2.718;2022-09-12T12:29:42;27.00;92.60
23405;DHT22;11875;49.356;2.718;2022-09-12T12:34:45;27.20;92.50
23405;DHT22;11875;49.356;2.718;2022-09-12T12:44:55;27.30;91.70
23405;DHT22;11875;49.356;2.718;2022-09-12T12:47:24;27.40;91.70
23405;DHT22;11875;49.356;2.718;2022-09-12T12:49:55;27.40;91.20
23405;DHT22;11875;49.356;2.718;2022-09-12T12:52:22;27.60;91.70
23405;DHT22;11875;49.356;2.718;2022-09-12T12:54:52;27.60;91.40
23405;DHT22;11875;49.356;2.718;2022-09-12T12:57:47;27.80;91.30
23405;DHT22;11875;49.356;2.718;2022-09-12T13:00:35;27.70;91.20
23405;DHT22;11875;49.356;2.718;2022-09-12T13:05:49;27.60;91.70
23405;DHT22;11875;49.356;2.718;2022-09-12T13:10:51;27.50;91.20
23405;DHT22;11875;49.356;2.718;2022-09-12T13:15:58;27.60;91.80
23405;DHT22;11875;49.356;2.718;2022-09-12T13:18:27;27.50;91.30
23405;DHT22;11875;49.356;2.718;2022-09-12T13:20:58;27.50;91.10
23405;DHT22;11875;49.356;2.718;2022-09-12T13:23:27;27.60;91.50
23405;DHT22;11875;49.356;2.718;2022-09-12T13:25:55;27.80;91.40
23405;DHT22;11875;49.356;2.718;2022-09-12T13:28:21;28.20;91.40
23405;DHT22;11875;49.356;2.718;2022-09-12T13:33:47;28.20;89.70
23405;DHT22;11875;49.356;2.718;2022-09-12T13:39:23;28.10;90.00
23405;DHT22;11875;49.356;2.718;2022-09-12T13:44:47;28.30;90.00
23405;DHT22;11875;49.356;2.718;2022-09-12T13:47:24;28.40;90.50
23405;DHT22;11875;49.356;2.718;2022-09-12T13:49:52;28.40;90.50
23405;DHT22;11875;49.356;2.718;2022-09-12T13:52:21;28.50;90.40
23405;DHT22;11875;49.356;2.718;2022-09-12T13:54:51;28.40;90.80
23405;DHT22;11875;49.356;2.718;2022-09-12T13:57:35;28.50;90.50
23405;DHT22;11875;49.356;2.718;2022-09-12T14:00:14;28.50;90.40
23405;DHT22;11875;49.356;2.718;2022-09-12T14:02:45;28.70;90.80
23405;DHT22;11875;49.356;2.718;2022-09-12T14:05:23;28.70;90.10
23405;DHT22;11875;49.356;2.718;2022-09-12T14:08:00;28.90;90.30
23405;DHT22;11875;49.356;2.718;2022-09-12T14:10:34;28.80;90.50
23405;DHT22;11875;49.356;2.718;2022-09-12T14:13:07;28.70;90.70
23405;DHT22;11875;49.356;2.718;2022-09-12T14:15:36;28.90;90.50
23405;DHT22;11875;49.356;2.718;2022-09-12T14:18:04;28.80;90.40
23405;DHT22;11875;49.356;2.718;2022-09-12T14:20:36;28.80;90.00
23405;DHT22;11875;49.356;2.718;2022-09-12T14:23:20;28.70;90.20
23405;DHT22;11875;49.356;2.718;2022-09-12T14:25:49;28.70;90.10
23405;DHT22;11875;49.356;2.718;2022-09-12T14:28:16;28.70;88.70
23405;DHT22;11875;49.356;2.718;2022-09-12T14:33:31;28.60;88.60
23405;DHT22;11875;49.356;2.718;2022-09-12T14:36:10;28.50;89.30
23405;DHT22;11875;49.356;2.718;2022-09-12T14:38:41;28.60;90.10
23405;DHT22;11875;49.356;2.718;2022-09-12T14:41:09;28.60;90.30
23405;DHT22;11875;49.356;2.718;2022-09-12T14:43:39;28.60;90.50
23405;DHT22;11875;49.356;2.718;2022-09-12T14:46:17;28.60;90.50
23405;DHT22;11875;49.356;2.718;2022-09-12T14:49:44;28.80;90.30
23405;DHT22;11875;49.356;2.718;2022-09-12T14:57:00;28.90;89.60
23405;DHT22;11875;49.356;2.718;2022-09-12T14:59:36;29.10;89.50
23405;DHT22;11875;49.356;2.718;2022-09-12T15:04:49;29.10;89.00
23405;DHT22;11875;49.356;2.718;2022-09-12T15:07:30;29.20;89.10
23405;DHT22;11875;49.356;2.718;2022-09-12T15:09:58;29.30;89.60
23405;DHT22;11875;49.356;2.718;2022-09-12T15:12:25;29.40;88.70
23405;DHT22;11875;49.356;2.718;2022-09-12T15:14:50;29.50;89.00
23405;DHT22;11875;49.356;2.718;2022-09-12T15:17:16;29.50;89.30
23405;DHT22;11875;49.356;2.718;2022-09-12T15:19:41;29.50;87.80
23405;DHT22;11875;49.356;2.718;2022-09-12T15:22:11;29.40;88.10
23405;DHT22;11875;49.356;2.718;2022-09-12T15:24:37;29.40;88.70
23405;DHT22;11875;49.356;2.718;2022-09-12T15:27:10;29.30;89.20
23405;DHT22;11875;49.356;2.718;2022-09-12T15:29:37;29.20;89.10
23405;DHT22;11875;49.356;2.718;2022-09-12T15:32:03;29.30;89.80
23405;DHT22;11875;49.356;2.718;2022-09-12T15:34:30;29.20;88.50
23405;DHT22;11875;49.356;2.718;2022-09-12T15:36:56;29.20;89.00
23405;DHT22;11875;49.356;2.718;2022-09-12T15:39:21;29.40;89.30
23405;DHT22;11875;49.356;2.718;2022-09-12T15:41:47;29.40;88.60
23405;DHT22;11875;49.356;2.718;2022-09-12T15:44:13;29.20;87.20
23405;DHT22;11875;49.356;2.718;2022-09-12T15:46:39;29.10;87.40
23405;DHT22;11875;49.356;2.718;2022-09-12T15:49:05;29.10;87.30
23405;DHT22;11875;49.356;2.718;2022-09-12T15:51:34;29.00;86.00
23405;DHT22;11875;49.356;2.718;2022-09-12T15:54:03;28.90;86.20
23405;DHT22;11875;49.356;2.718;2022-09-12T15:56:29;28.90;85.80
23405;DHT22;11875;49.356;2.718;2022-09-12T15:58:54;28.80;86.30
23405;DHT22;11875;49.356;2.718;2022-09-12T16:01:20;28.80;86.20
23405;DHT22;11875;49.356;2.718;2022-09-12T16:03:47;28.80;85.20
23405;DHT22;11875;49.356;2.718;2022-09-12T16:06:13;28.60;85.10
23405;DHT22;11875;49.356;2.718;2022-09-12T16:08:40;28.60;86.50
23405;DHT22;11875;49.356;2.718;2022-09-12T16:11:21;28.60;85.60
23405;DHT22;11875;49.356;2.718;2022-09-12T16:13:47;28.70;85.70
23405;DHT22;11875;49.356;2.718;2022-09-12T16:16:13;28.60;85.70
23405;DHT22;11875;49.356;2.718;2022-09-12T16:18:39;28.60;86.30
23405;DHT22;11875;49.356;2.718;2022-09-12T16:21:05;28.60;86.50
23405;DHT22;11875;49.356;2.718;2022-09-12T16:23:31;28.50;86.80
23405;DHT22;11875;49.356;2.718;2022-09-12T16:26:02;28.50;87.50
23405;DHT22;11875;49.356;2.718;2022-09-12T16:28:28;28.50;87.40
23405;DHT22;11875;49.356;2.718;2022-09-12T16:31:02;28.40;87.60
23405;DHT22;11875;49.356;2.718;2022-09-12T16:33:30;28.40;88.30
23405;DHT22;11875;49.356;2.718;2022-09-12T16:36:10;28.40;89.40
23405;DHT22;11875;49.356;2.718;2022-09-12T16:38:44;28.50;87.50
23405;DHT22;11875;49.356;2.718;2022-09-12T16:41:10;28.40;88.30
23405;DHT22;11875;49.356;2.718;2022-09-12T16:43:36;28.20;87.70
23405;DHT22;11875;49.356;2.718;2022-09-12T16:46:05;28.10;88.20
23405;DHT22;11875;49.356;2.718;2022-09-12T16:48:31;28.20;89.20
23405;DHT22;11875;49.356;2.718;2022-09-12T16:50:59;28.30;89.20
23405;DHT22;11875;49.356;2.718;2022-09-12T16:53:29;28.20;89.00
23405;DHT22;11875;49.356;2.718;2022-09-12T16:55:55;28.10;88.40
23405;DHT22;11875;49.356;2.718;2022-09-12T16:58:21;28.20;88.00
23405;DHT22;11875;49.356;2.718;2022-09-12T17:00:46;28.30;88.40
23405;DHT22;11875;49.356;2.718;2022-09-12T17:03:12;28.40;88.50
23405;DHT22;11875;49.356;2.718;2022-09-12T17:05:38;28.50;90.10
23405;DHT22;11875;49.356;2.718;2022-09-12T17:08:03;28.50;90.10
23405;DHT22;11875;49.356;2.718;2022-09-12T17:10:29;28.50;90.10
23405;DHT22;11875;49.356;2.718;2022-09-12T17:12:56;28.40;88.90
23405;DHT22;11875;49.356;2.718;2022-09-12T17:15:22;28.40;88.40
23405;DHT22;11875;49.356;2.718;2022-09-12T17:17:48;28.30;88.40
23405;DHT22;11875;49.356;2.718;2022-09-12T17:20:13;28.40;89.20
23405;DHT22;11875;49.356;2.718;2022-09-12T17:22:39;28.30;90.40
23405;DHT22;11875;49.356;2.718;2022-09-12T17:25:05;28.30;90.50
23405;DHT22;11875;49.356;2.718;2022-09-12T17:27:30;28.20;91.40
23405;DHT22;11875;49.356;2.718;2022-09-12T17:29:56;28.20;91.50
23405;DHT22;11875;49.356;2.718;2022-09-12T17:32:21;28.20;92.00
23405;DHT22;11875;49.356;2.718;2022-09-12T17:34:47;28.20;92.00
23405;DHT22;11875;49.356;2.718;2022-09-12T17:37:13;28.00;92.30
23405;DHT22;11875;49.356;2.718;2022-09-12T17:39:38;28.00;92.50
23405;DHT22;11875;49.356;2.718;2022-09-12T17:42:04;28.00;92.60
23405;DHT22;11875;49.356;2.718;2022-09-12T17:44:31;27.90;92.60
23405;DHT22;11875;49.356;2.718;2022-09-12T17:46:57;27.80;92.90
23405;DHT22;11875;49.356;2.718;2022-09-12T17:49:23;27.80;92.80
23405;DHT22;11875;49.356;2.718;2022-09-12T17:51:49;27.60;93.10
23405;DHT22;11875;49.356;2.718;2022-09-12T17:54:17;27.60;93.00
23405;DHT22;11875;49.356;2.718;2022-09-12T17:56:46;27.50;92.70
23405;DHT22;11875;49.356;2.718;2022-09-12T17:59:17;27.40;92.80
23405;DHT22;11875;49.356;2.718;2022-09-12T18:01:43;27.40;93.10
23405;DHT22;11875;49.356;2.718;2022-09-12T18:04:28;27.20;93.00
23405;DHT22;11875;49.356;2.718;2022-09-12T18:06:55;27.10;93.60